createdAt,value
2022-09-13T00:01:42.649Z,2.30
2022-09-13T00:04:08.511Z,2.33
2022-09-13T00:06:34.493Z,2.40
2022-09-13T00:09:00.820Z,3.47
2022-09-13T00:11:28.751Z,2.30
2022-09-13T00:13:55.720Z,6.53
2022-09-13T00:16:25.216Z,3.55
2022-09-13T00:18:52.450Z,2.45
2022-09-13T00:21:20.733Z,2.35
2022-09-13T00:23:49.248Z,3.35
2022-09-13T00:26:18.104Z,5.97
2022-09-13T00:28:47.562Z,2.42
2022-09-13T00:31:13.577Z,2.22
2022-09-13T00:33:39.435Z,3.17
2022-09-13T00:36:10.567Z,2.70
2022-09-13T00:38:37.498Z,2.67
2022-09-13T00:41:05.262Z,2.08
2022-09-13T00:43:42.262Z,4.07
2022-09-13T00:46:09.059Z,2.13
2022-09-13T00:48:36.142Z,4.60
2022-09-13T00:51:05.661Z,2.45
2022-09-13T00:53:34.902Z,1.52
2022-09-13T00:56:26.738Z,3.17
2022-09-13T00:58:58.638Z,2.28
2022-09-13T01:01:32.027Z,2.55
2022-09-13T01:03:59.076Z,1.90
2022-09-13T01:06:32.362Z,2.25
2022-09-13T01:09:03.621Z,3.13
2022-09-13T01:11:40.190Z,2.05
2022-09-13T01:14:07.935Z,2.35
2022-09-13T01:16:34.382Z,4.30
2022-09-13T01:19:00.176Z,3.70
2022-09-13T01:22:02.225Z,2.75
2022-09-13T01:24:46.403Z,2.70
2022-09-13T01:27:27.664Z,2.80
2022-09-13T01:30:19.392Z,3.33
2022-09-13T01:32:50.977Z,2.72
2022-09-13T01:35:34.193Z,3.38
2022-09-13T01:38:05.945Z,2.22
2022-09-13T01:40:56.937Z,2.75
2022-09-13T01:43:41.577Z,2.05
2022-09-13T01:46:29.637Z,5.63
2022-09-13T01:49:02.576Z,5.80
2022-09-13T01:51:48.230Z,1.80
2022-09-13T01:54:34.185Z,2.67
2022-09-13T01:57:22.434Z,3.17
2022-09-13T01:59:54.786Z,4.13
2022-09-13T02:02:36.043Z,4.35
2022-09-13T02:05:44.125Z,4.13
2022-09-13T02:08:16.670Z,2.35
2022-09-13T02:10:51.663Z,2.30
2022-09-13T02:13:21.952Z,2.13
2022-09-13T02:15:55.210Z,1.50
2022-09-13T02:18:28.921Z,5.15
2022-09-13T02:21:02.025Z,3.58
2022-09-13T02:23:41.149Z,2.67
2022-09-13T02:26:08.745Z,2.38
2022-09-13T02:28:47.871Z,4.15
2022-09-13T02:31:18.769Z,3.45
2022-09-13T02:33:51.450Z,3.15
2022-09-13T02:36:25.646Z,4.70
2022-09-13T02:38:56.513Z,3.47
2022-09-13T02:41:49.727Z,2.60
2022-09-13T02:44:27.501Z,2.88
2022-09-13T02:47:08.912Z,2.75
2022-09-13T02:49:50.845Z,1.70
2022-09-13T02:52:19.595Z,3.00
2022-09-13T02:55:05.210Z,2.25
2022-09-13T02:58:01.664Z,1.85
2022-09-13T03:00:28.337Z,3.30
2022-09-13T03:02:56.327Z,2.22
2022-09-13T03:05:22.663Z,1.60
2022-09-13T03:07:49.617Z,3.92
2022-09-13T03:10:15.955Z,1.80
2022-09-13T03:13:06.041Z,3.08
2022-09-13T03:15:34.421Z,1.98
2022-09-13T03:18:37.212Z,3.20
2022-09-13T03:21:33.853Z,2.25
2022-09-13T03:24:11.949Z,2.10
2022-09-13T03:27:06.340Z,4.00
2022-09-13T03:30:07.909Z,1.60
2022-09-13T03:32:51.447Z,4.30
2022-09-13T03:35:23.229Z,2.45
2022-09-13T03:38:07.480Z,3.97
2022-09-13T03:40:37.528Z,1.75
2022-09-13T03:43:08.936Z,3.50
2022-09-13T03:45:51.637Z,2.70
2022-09-13T03:48:18.307Z,2.28
2022-09-13T03:50:46.516Z,1.80
2022-09-13T03:53:17.915Z,3.63
2022-09-13T03:55:44.142Z,3.28
2022-09-13T03:58:12.856Z,3.17
2022-09-13T04:00:40.456Z,2.88
2022-09-13T04:03:07.161Z,4.55
2022-09-13T04:05:34.008Z,3.25
2022-09-13T04:08:01.190Z,3.15
2022-09-13T04:10:29.259Z,2.05
2022-09-13T04:12:55.177Z,1.45
2022-09-13T04:15:21.197Z,3.22
2022-09-13T04:17:47.517Z,4.72
2022-09-13T04:20:13.625Z,3.30
2022-09-13T04:22:39.384Z,2.50
2022-09-13T04:25:05.844Z,6.18
2022-09-13T04:27:31.862Z,3.65
2022-09-13T04:29:57.595Z,2.20
2022-09-13T04:32:23.845Z,2.00
2022-09-13T04:34:49.609Z,4.05
2022-09-13T04:37:15.449Z,1.70
2022-09-13T04:39:41.325Z,3.38
2022-09-13T04:42:07.980Z,2.65
2022-09-13T04:44:33.766Z,2.38
2022-09-13T04:46:59.681Z,5.35
2022-09-13T04:49:25.472Z,2.72
2022-09-13T04:51:51.262Z,3.00
2022-09-13T04:54:17.145Z,2.58
2022-09-13T04:56:44.010Z,4.32
2022-09-13T04:59:11.157Z,2.97
2022-09-13T05:01:37.699Z,3.47
2022-09-13T05:04:05.696Z,3.13
2022-09-13T05:06:31.548Z,2.60
2022-09-13T05:08:57.404Z,6.03
2022-09-13T05:11:25.099Z,3.03
2022-09-13T05:13:53.812Z,3.75
2022-09-13T05:16:19.889Z,4.50
2022-09-13T05:18:45.713Z,1.98
2022-09-13T05:21:11.760Z,3.97
2022-09-13T05:23:37.841Z,2.45
2022-09-13T05:26:05.755Z,1.83
2022-09-13T05:28:34.579Z,3.65
2022-09-13T05:31:03.165Z,3.53
2022-09-13T05:33:34.365Z,2.05
2022-09-13T05:36:01.063Z,1.92
2022-09-13T05:38:26.925Z,1.83
2022-09-13T05:40:57.344Z,3.88
2022-09-13T05:43:27.075Z,5.20
2022-09-13T05:46:13.999Z,2.03
2022-09-13T05:48:40.332Z,2.80
2022-09-13T05:51:28.118Z,1.60
2022-09-13T05:53:55.216Z,4.55
2022-09-13T05:56:23.531Z,2.13
2022-09-13T05:58:51.122Z,5.07
2022-09-13T06:01:22.447Z,1.65
2022-09-13T06:03:52.667Z,2.28
2022-09-13T06:06:19.244Z,3.50
2022-09-13T06:08:45.688Z,3.33
2022-09-13T06:11:13.866Z,4.03
2022-09-13T06:13:40.630Z,2.80
2022-09-13T06:16:08.884Z,3.72
2022-09-13T06:18:35.301Z,2.63
2022-09-13T06:21:22.860Z,2.08
2022-09-13T06:23:52.705Z,2.10
2022-09-13T06:26:21.601Z,1.63
2022-09-13T06:28:52.744Z,5.55
2022-09-13T06:31:21.714Z,6.20
2022-09-13T06:33:48.260Z,3.75
2022-09-13T06:36:19.148Z,1.95
2022-09-13T06:38:48.411Z,3.13
2022-09-13T06:41:21.133Z,5.90
2022-09-13T06:43:51.560Z,1.70
2022-09-13T06:46:21.566Z,2.33
2022-09-13T06:48:50.428Z,2.70
2022-09-13T06:51:18.759Z,5.10
2022-09-13T06:53:46.601Z,1.83
2022-09-13T06:56:18.086Z,2.22
2022-09-13T06:58:46.592Z,1.88
2022-09-13T07:01:14.619Z,3.20
2022-09-13T07:03:52.316Z,3.97
2022-09-13T07:06:22.604Z,1.83
2022-09-13T07:08:50.426Z,2.47
2022-09-13T07:11:18.091Z,2.60
2022-09-13T07:14:17.073Z,1.05
2022-09-13T07:16:43.164Z,7.07
2022-09-13T07:19:19.389Z,2.17
2022-09-13T07:21:45.675Z,4.82
2022-09-13T07:24:11.891Z,2.05
2022-09-13T07:26:38.208Z,2.25
2022-09-13T07:29:06.703Z,1.77
2022-09-13T07:31:35.776Z,1.45
2022-09-13T07:34:12.193Z,3.35
2022-09-13T07:36:38.430Z,3.33
2022-09-13T07:39:04.579Z,2.40
2022-09-13T07:41:32.068Z,3.05
2022-09-13T07:44:00.004Z,2.30
2022-09-13T07:46:35.661Z,7.22
2022-09-13T07:49:02.175Z,1.65
2022-09-13T07:51:30.220Z,1.10
2022-09-13T07:53:58.261Z,2.33
2022-09-13T07:56:32.829Z,1.52
2022-09-13T07:59:00.967Z,3.08
2022-09-13T08:01:46.855Z,2.17
2022-09-13T08:04:17.118Z,2.45
2022-09-13T08:06:43.815Z,5.65
2022-09-13T08:09:10.639Z,3.83
2022-09-13T08:11:39.009Z,2.75
2022-09-13T08:14:07.414Z,3.03
2022-09-13T08:16:33.254Z,3.25
2022-09-13T08:19:01.345Z,1.73
2022-09-13T08:21:35.416Z,2.03
2022-09-13T08:24:01.974Z,3.08
2022-09-13T08:26:29.335Z,2.33
2022-09-13T08:28:57.540Z,2.10
2022-09-13T08:31:27.885Z,1.30
2022-09-13T08:33:55.193Z,2.92
2022-09-13T08:36:23.209Z,1.50
2022-09-13T08:38:51.384Z,2.08
2022-09-13T08:41:24.851Z,1.88
2022-09-13T08:43:59.754Z,4.05
2022-09-13T08:46:34.372Z,1.65
2022-09-13T08:49:07.744Z,1.30
2022-09-13T08:51:46.561Z,1.67
2022-09-13T08:54:17.046Z,3.40
2022-09-13T08:57:02.988Z,1.65
2022-09-13T09:00:05.903Z,4.22
2022-09-13T09:02:44.807Z,2.20
2022-09-13T09:05:20.776Z,1.48
2022-09-13T09:08:25.163Z,3.97
2022-09-13T09:10:54.864Z,2.95
2022-09-13T09:13:30.513Z,1.73
2022-09-13T09:16:02.094Z,2.63
2022-09-13T09:18:55.400Z,4.68
2022-09-13T09:21:21.355Z,4.78
2022-09-13T09:23:51.245Z,3.15
2022-09-13T09:26:23.114Z,4.07
2022-09-13T09:28:58.205Z,1.88
2022-09-13T09:31:30.089Z,3.25
2022-09-13T09:34:11.485Z,1.73
2022-09-13T09:36:39.968Z,1.58
2022-09-13T09:39:11.321Z,1.98
2022-09-13T09:41:37.725Z,1.40
2022-09-13T09:44:33.828Z,2.60
2022-09-13T09:47:09.951Z,4.00
2022-09-13T09:50:09.235Z,1.40
2022-09-13T09:52:50.808Z,1.48
2022-09-13T09:55:46.151Z,2.25
2022-09-13T09:58:16.112Z,2.92
2022-09-13T10:00:51.888Z,1.77
2022-09-13T10:03:20.448Z,2.72
2022-09-13T10:05:46.888Z,3.03
2022-09-13T10:08:30.987Z,1.42
2022-09-13T10:11:01.552Z,6.35
2022-09-13T10:13:31.584Z,1.95
2022-09-13T10:16:04.052Z,3.50
2022-09-13T10:18:50.453Z,1.45
2022-09-13T10:21:19.003Z,5.80
2022-09-13T10:23:46.733Z,2.60
2022-09-13T10:26:16.286Z,1.40
2022-09-13T10:28:51.384Z,2.03
2022-09-13T10:33:55.307Z,1.13
2022-09-13T10:36:48.599Z,4.18
2022-09-13T10:39:18.112Z,2.67
2022-09-13T10:41:52.386Z,2.55
2022-09-13T10:44:44.176Z,1.70
2022-09-13T10:47:59.508Z,1.98
2022-09-13T10:50:28.330Z,1.65
2022-09-13T10:52:56.189Z,2.88
2022-09-13T10:55:21.941Z,3.65
2022-09-13T10:57:49.782Z,2.83
2022-09-13T11:00:18.339Z,1.15
2022-09-13T11:02:48.560Z,6.30
2022-09-13T11:05:40.388Z,1.98
2022-09-13T11:08:14.362Z,4.35
2022-09-13T11:11:00.593Z,2.38
2022-09-13T11:13:44.648Z,2.22
2022-09-13T11:16:16.784Z,1.85
2022-09-13T11:18:42.614Z,2.88
2022-09-13T11:21:23.605Z,4.18
2022-09-13T11:24:08.864Z,1.98
2022-09-13T11:26:53.390Z,3.22
2022-09-13T11:29:56.029Z,1.83
2022-09-13T11:32:49.589Z,1.17
2022-09-13T11:35:33.889Z,1.85
2022-09-13T11:38:26.133Z,2.80
2022-09-13T11:41:16.208Z,1.33
2022-09-13T11:44:06.715Z,1.73
2022-09-13T11:46:45.915Z,2.20
2022-09-13T11:49:30.207Z,2.75
2022-09-13T11:52:01.704Z,2.65
2022-09-13T11:54:51.873Z,3.60
2022-09-13T11:57:24.384Z,0.85
2022-09-13T11:59:58.632Z,4.03
2022-09-13T12:02:38.854Z,1.98
2022-09-13T12:05:23.177Z,2.90
2022-09-13T12:08:21.066Z,2.30
2022-09-13T12:10:56.477Z,2.63
2022-09-13T12:13:26.751Z,4.88
2022-09-13T12:15:56.644Z,2.63
2022-09-13T12:18:22.354Z,1.40
2022-09-13T12:20:50.753Z,2.22
2022-09-13T12:23:26.629Z,2.80
2022-09-13T12:25:59.629Z,2.10
2022-09-13T12:28:30.290Z,0.90
2022-09-13T12:31:09.258Z,1.35
2022-09-13T12:33:40.239Z,2.88
2022-09-13T12:36:29.778Z,3.85
2022-09-13T12:39:25.864Z,0.60
2022-09-13T12:41:51.596Z,1.42
2022-09-13T12:44:33.755Z,4.05
2022-09-13T12:47:24.650Z,1.60
2022-09-13T12:50:36.821Z,1.33
2022-09-13T12:53:05.170Z,3.60
2022-09-13T12:56:07.590Z,3.00
2022-09-13T12:59:08.103Z,0.93
2022-09-13T13:01:34.191Z,2.58
2022-09-13T13:04:18.113Z,1.00
2022-09-13T13:06:55.282Z,3.40
2022-09-13T13:09:32.580Z,2.85
2022-09-13T13:11:58.934Z,2.50
2022-09-13T13:14:39.613Z,6.18
2022-09-13T13:17:34.219Z,2.80
2022-09-13T13:20:00.594Z,2.27
2022-09-13T13:22:44.571Z,2.83
2022-09-13T13:25:36.978Z,1.38
2022-09-13T13:28:02.842Z,1.42
2022-09-13T13:30:39.537Z,1.73
2022-09-13T13:33:19.628Z,1.40
2022-09-13T13:35:48.940Z,1.17
2022-09-13T13:38:40.080Z,2.10
2022-09-13T13:41:27.803Z,1.67
2022-09-13T13:43:53.646Z,1.42
2022-09-13T13:46:23.885Z,1.60
2022-09-13T13:48:49.741Z,1.88
2022-09-13T13:51:20.064Z,3.13
2022-09-13T13:53:50.912Z,1.83
2022-09-13T13:56:21.702Z,3.95
2022-09-13T13:58:50.447Z,2.13
2022-09-13T14:01:27.661Z,1.88
2022-09-13T14:04:22.330Z,1.92
2022-09-13T14:07:29.198Z,5.85
2022-09-13T14:10:07.623Z,1.17
2022-09-13T14:12:44.651Z,1.67
2022-09-13T14:15:20.183Z,2.30
2022-09-13T14:18:13.150Z,2.47
2022-09-13T14:20:59.809Z,1.70
2022-09-13T14:23:26.366Z,4.90
2022-09-13T14:25:57.763Z,2.08
2022-09-13T14:28:24.347Z,1.63
2022-09-13T14:30:55.574Z,4.22
2022-09-13T14:33:31.019Z,3.50
2022-09-13T14:36:07.088Z,3.58
2022-09-13T14:38:35.698Z,3.53
2022-09-13T14:41:09.647Z,3.92
2022-09-13T14:43:35.528Z,2.63
2022-09-13T14:46:10.574Z,3.33
2022-09-13T14:48:55.732Z,6.90
2022-09-13T14:54:00.329Z,5.13
2022-09-13T14:56:36.246Z,4.45
2022-09-13T14:59:11.248Z,2.78
2022-09-13T15:01:37.064Z,3.92
2022-09-13T15:04:04.721Z,2.03
2022-09-13T15:06:39.835Z,2.97
2022-09-13T15:09:11.713Z,5.25
2022-09-13T15:11:54.281Z,5.90
2022-09-13T15:14:37.340Z,3.50
2022-09-13T15:17:13.277Z,4.90
2022-09-13T15:19:47.344Z,5.53
2022-09-13T15:22:25.643Z,2.70
2022-09-13T15:24:54.534Z,3.90
2022-09-13T15:27:50.066Z,2.92
2022-09-13T15:30:29.446Z,5.95
2022-09-13T15:33:05.724Z,3.13
2022-09-13T15:35:45.173Z,4.32
2022-09-13T15:38:14.032Z,3.60
2022-09-13T15:40:57.304Z,3.03
2022-09-13T15:43:23.582Z,2.85
2022-09-13T15:45:49.592Z,3.33
2022-09-13T15:48:34.176Z,3.45
2022-09-13T15:51:09.251Z,3.25
2022-09-13T15:53:36.860Z,3.08
2022-09-13T15:56:04.112Z,3.58
2022-09-13T15:58:30.546Z,7.03
2022-09-13T16:00:56.513Z,2.95
2022-09-13T16:03:22.668Z,3.88
2022-09-13T16:05:48.514Z,4.63
2022-09-13T16:08:14.307Z,1.67
2022-09-13T16:10:40.245Z,7.07
2022-09-13T16:13:08.960Z,6.60
2022-09-13T16:15:34.866Z,4.50
2022-09-13T16:18:00.641Z,4.68
2022-09-13T16:20:27.042Z,3.15
2022-09-13T16:22:53.660Z,5.65
2022-09-13T16:25:20.116Z,3.17
2022-09-13T16:27:46.381Z,4.63
2022-09-13T16:30:14.801Z,2.67
2022-09-13T16:32:41.069Z,4.45
2022-09-13T16:35:08.003Z,5.13
2022-09-13T16:37:34.911Z,5.57
2022-09-13T16:40:00.937Z,9.68
2022-09-13T16:42:26.835Z,2.53
2022-09-13T16:44:52.707Z,4.05
2022-09-13T16:47:18.634Z,4.35
2022-09-13T16:49:44.512Z,3.70
2022-09-13T16:52:10.797Z,5.07
2022-09-13T16:54:37.121Z,3.40
2022-09-13T16:57:05.580Z,5.15
2022-09-13T16:59:32.573Z,6.05
2022-09-13T17:01:58.780Z,4.85
2022-09-13T17:04:24.999Z,6.00
2022-09-13T17:06:50.832Z,5.60
2022-09-13T17:09:16.871Z,5.53
2022-09-13T17:11:44.293Z,4.05
2022-09-13T17:14:13.964Z,5.90
2022-09-13T17:16:43.831Z,2.83
2022-09-13T17:19:21.279Z,3.63
2022-09-13T17:21:49.351Z,6.55
2022-09-13T17:24:15.733Z,7.93
2022-09-13T17:26:42.601Z,5.47
2022-09-13T17:29:12.278Z,4.75
2022-09-13T17:31:39.457Z,5.90
2022-09-13T17:34:05.701Z,3.55
2022-09-13T17:36:31.749Z,5.97
2022-09-13T17:38:57.817Z,5.38
2022-09-13T17:41:25.290Z,5.53
2022-09-13T17:43:52.241Z,9.23
2022-09-13T17:46:21.532Z,4.57
2022-09-13T17:48:49.334Z,4.72
2022-09-13T17:51:18.017Z,4.90
2022-09-13T17:53:50.374Z,11.05
2022-09-13T17:56:32.312Z,7.20
2022-09-13T17:59:10.469Z,5.78
2022-09-13T18:01:38.505Z,4.15
2022-09-13T18:04:04.757Z,6.20
2022-09-13T18:06:30.610Z,4.13
2022-09-13T18:08:57.542Z,5.47
2022-09-13T18:11:23.431Z,7.88
2022-09-13T18:13:50.759Z,5.70
2022-09-13T18:16:21.436Z,4.43
2022-09-13T18:18:48.439Z,6.15
2022-09-13T18:21:17.883Z,5.78
2022-09-13T18:23:44.652Z,5.13
2022-09-13T18:26:13.216Z,8.13
2022-09-13T18:28:39.986Z,7.57
2022-09-13T18:31:10.401Z,5.57
2022-09-13T18:33:36.408Z,7.10
2022-09-13T18:36:08.309Z,7.97
2022-09-13T18:38:36.728Z,10.07
2022-09-13T18:41:17.287Z,9.43
2022-09-13T18:43:45.033Z,8.13
2022-09-13T18:46:13.355Z,8.93
2022-09-13T18:48:42.206Z,10.30
2022-09-13T18:51:10.323Z,8.18
2022-09-13T18:53:36.509Z,10.68
2022-09-13T18:56:07.625Z,11.63
2022-09-13T18:58:35.614Z,7.63
2022-09-13T19:01:06.291Z,10.23
2022-09-13T19:03:33.193Z,9.77
2022-09-13T19:06:10.255Z,10.45
2022-09-13T19:08:36.345Z,8.88
2022-09-13T19:11:02.275Z,8.98
2022-09-13T19:13:29.307Z,12.68
2022-09-13T19:16:04.791Z,8.68
2022-09-13T19:18:31.111Z,11.32
2022-09-13T19:21:04.326Z,10.05
2022-09-13T19:23:55.637Z,9.63
2022-09-13T19:26:18.012Z,10.00
2022-09-13T19:28:56.625Z,10.25
2022-09-13T19:31:24.905Z,10.27
2022-09-13T19:33:52.928Z,13.45
2022-09-13T19:36:24.294Z,12.65
2022-09-13T19:38:51.456Z,11.07
2022-09-13T19:41:19.095Z,11.68
2022-09-13T19:43:46.998Z,12.13
2022-09-13T19:46:15.683Z,7.22
2022-09-13T19:48:46.432Z,7.28
2022-09-13T19:51:16.718Z,9.25
2022-09-13T19:53:56.985Z,11.20
2022-09-13T19:56:29.028Z,7.55
2022-09-13T19:58:55.603Z,8.45
2022-09-13T20:01:33.727Z,8.02
2022-09-13T20:04:02.129Z,9.30
2022-09-13T20:06:33.052Z,7.15
2022-09-13T20:09:02.210Z,6.07
2022-09-13T20:11:28.533Z,6.63
2022-09-13T20:13:58.824Z,6.38
2022-09-13T20:16:31.557Z,6.95
2022-09-13T20:18:57.825Z,12.25
2022-09-13T20:21:25.978Z,8.77
2022-09-13T20:23:58.325Z,8.18
2022-09-13T20:26:25.010Z,9.27
2022-09-13T20:28:55.855Z,13.48
2022-09-13T20:31:22.832Z,12.73
2022-09-13T20:33:52.801Z,14.00
2022-09-13T20:36:18.605Z,9.95
2022-09-13T20:38:47.562Z,8.45
2022-09-13T20:41:14.139Z,9.93
2022-09-13T20:43:40.815Z,6.85
2022-09-13T20:46:09.061Z,8.55
2022-09-13T20:48:35.637Z,8.57
2022-09-13T20:51:21.629Z,13.13
2022-09-13T20:53:58.158Z,17.42
2022-09-13T20:56:24.193Z,11.00
2022-09-13T20:58:57.060Z,11.63
2022-09-13T21:01:24.656Z,10.50
2022-09-13T21:03:53.082Z,10.73
2022-09-13T21:06:20.786Z,9.75
2022-09-13T21:08:49.534Z,10.57
2022-09-13T21:11:28.381Z,10.60
2022-09-13T21:13:58.419Z,13.30
2022-09-13T21:16:27.164Z,15.90
2022-09-13T21:18:53.308Z,14.32
2022-09-13T21:21:21.619Z,15.95
2022-09-13T21:23:47.790Z,16.80
2022-09-13T21:26:16.209Z,16.88
2022-09-13T21:28:43.274Z,19.65
2022-09-13T21:31:22.181Z,16.48
2022-09-13T21:33:59.527Z,16.85
2022-09-13T21:36:26.519Z,15.82
2022-09-13T21:38:55.176Z,15.95
2022-09-13T21:41:22.349Z,12.27
2022-09-13T21:43:49.083Z,14.18
2022-09-13T21:46:17.992Z,10.52
2022-09-13T21:48:45.921Z,10.70
2022-09-13T21:51:19.784Z,12.35
2022-09-13T21:53:56.198Z,11.95
2022-09-13T21:56:26.456Z,16.08
2022-09-13T21:58:54.979Z,13.88
2022-09-13T22:01:22.862Z,12.73
2022-09-13T22:03:50.945Z,15.68
2022-09-13T22:06:18.976Z,15.30
2022-09-13T22:08:47.969Z,17.48
2022-09-13T22:11:26.081Z,20.20
2022-09-13T22:13:53.021Z,18.67
2022-09-13T22:16:22.540Z,15.65
2022-09-13T22:18:50.992Z,15.55
2022-09-13T22:21:19.776Z,16.45
2022-09-13T22:23:46.094Z,16.70
2022-09-13T22:26:17.466Z,16.02
2022-09-13T22:28:43.506Z,17.70
2022-09-13T22:31:14.481Z,18.48
2022-09-13T22:33:41.225Z,21.08
2022-09-13T22:36:09.710Z,23.38
2022-09-13T22:38:37.332Z,22.63
2022-09-13T22:41:08.072Z,25.13
2022-09-13T22:43:34.669Z,23.67
2022-09-13T22:46:06.334Z,26.92
2022-09-13T22:48:33.041Z,27.45
2022-09-13T22:50:58.951Z,26.63
2022-09-13T22:53:26.108Z,28.08
2022-09-13T22:55:52.736Z,31.30
2022-09-13T22:58:18.801Z,28.35
2022-09-13T23:00:45.739Z,28.48
2022-09-13T23:03:12.703Z,29.08
2022-09-13T23:05:38.822Z,30.15
2022-09-13T23:08:05.285Z,32.17
2022-09-13T23:10:31.958Z,31.08
2022-09-13T23:12:57.900Z,29.90
2022-09-13T23:15:26.632Z,33.10
2022-09-13T23:17:52.527Z,30.23
2022-09-13T23:20:19.480Z,29.83
2022-09-13T23:22:45.920Z,28.80
2022-09-13T23:25:11.757Z,21.35
2022-09-13T23:27:37.797Z,18.20
2022-09-13T23:30:04.148Z,14.80
2022-09-13T23:32:30.012Z,13.07
2022-09-13T23:34:55.797Z,12.43
2022-09-13T23:37:21.797Z,11.07
2022-09-13T23:39:48.579Z,9.27
2022-09-13T23:42:14.439Z,9.65
2022-09-13T23:44:40.236Z,9.90
2022-09-13T23:47:06.185Z,13.80
2022-09-13T23:49:31.916Z,12.10
2022-09-13T23:51:57.670Z,9.75
2022-09-13T23:54:23.482Z,9.55
2022-09-13T23:56:49.326Z,12.52
2022-09-13T23:59:15.175Z,6.53
